createdAt,value
2019-05-29T00:02:03.033Z,99.90
2019-05-29T00:04:35.828Z,99.90
2019-05-29T00:07:08.769Z,99.90
2019-05-29T00:09:42.570Z,99.90
2019-05-29T00:12:20.112Z,99.90
2019-05-29T00:14:52.311Z,99.90
2019-05-29T00:17:25.172Z,99.90
2019-05-29T00:19:57.910Z,99.90
2019-05-29T00:22:31.648Z,99.90
2019-05-29T00:25:04.805Z,99.90
2019-05-29T00:27:39.084Z,99.90
2019-05-29T00:30:13.485Z,99.90
2019-05-29T00:32:48.502Z,99.90
2019-05-29T00:35:22.908Z,99.90
2019-05-29T00:37:55.857Z,99.90
2019-05-29T00:40:28.678Z,99.90
2019-05-29T00:43:01.371Z,99.90
2019-05-29T00:45:35.806Z,99.90
2019-05-29T00:48:09.571Z,99.90
2019-05-29T00:50:42.441Z,99.90
2019-05-29T00:53:16.285Z,99.90
2019-05-29T00:55:49.208Z,99.90
2019-05-29T00:58:21.890Z,99.90
2019-05-29T01:00:54.508Z,99.90
2019-05-29T01:03:28.182Z,99.90
2019-05-29T01:06:00.922Z,99.90
2019-05-29T01:08:33.582Z,99.90
2019-05-29T01:11:07.309Z,99.90
2019-05-29T01:13:40.190Z,99.90
2019-05-29T01:16:15.364Z,99.90
2019-05-29T01:18:50.111Z,99.90
2019-05-29T01:21:23.163Z,99.90
2019-05-29T01:23:55.817Z,99.90
2019-05-29T01:26:28.474Z,99.90
2019-05-29T01:29:01.242Z,99.90
2019-05-29T01:31:35.740Z,99.90
2019-05-29T01:34:10.119Z,99.90
2019-05-29T01:36:43.107Z,99.90
2019-05-29T01:39:15.802Z,99.90
2019-05-29T01:41:48.467Z,99.90
2019-05-29T01:44:21.469Z,99.90
2019-05-29T01:46:56.140Z,99.90
2019-05-29T01:49:38.105Z,99.90
2019-05-29T01:52:10.742Z,99.90
2019-05-29T01:54:43.389Z,99.90
2019-05-29T01:57:18.122Z,99.90
2019-05-29T01:59:50.760Z,99.90
2019-05-29T02:02:23.934Z,99.90
2019-05-29T02:04:56.610Z,99.90
2019-05-29T02:07:30.799Z,99.90
2019-05-29T02:10:05.213Z,99.90
2019-05-29T02:12:37.835Z,99.90
2019-05-29T02:15:24.844Z,99.90
2019-05-29T02:17:46.286Z,99.90
2019-05-29T02:20:19.458Z,99.90
2019-05-29T02:22:52.078Z,99.90
2019-05-29T02:25:26.380Z,99.90
2019-05-29T02:28:01.059Z,99.90
2019-05-29T02:30:33.893Z,99.90
2019-05-29T02:33:09.436Z,99.90
2019-05-29T02:35:42.082Z,99.90
2019-05-29T02:38:14.828Z,99.90
2019-05-29T02:40:47.380Z,99.90
2019-05-29T02:43:21.372Z,99.90
2019-05-29T02:45:55.353Z,99.90
2019-05-29T02:48:30.130Z,99.90
2019-05-29T02:51:03.820Z,99.90
2019-05-29T02:53:36.496Z,99.90
2019-05-29T02:56:09.239Z,99.90
2019-05-29T02:58:44.065Z,99.90
2019-05-29T03:01:18.744Z,99.90
2019-05-29T03:03:51.698Z,99.90
2019-05-29T03:06:26.205Z,99.90
2019-05-29T03:08:59.185Z,99.90
2019-05-29T03:11:33.467Z,99.90
2019-05-29T03:14:06.602Z,99.90
2019-05-29T03:16:39.531Z,99.90
2019-05-29T03:19:12.366Z,99.90
2019-05-29T03:21:45.054Z,99.90
2019-05-29T03:24:17.755Z,99.90
2019-05-29T03:26:50.480Z,99.90
2019-05-29T03:29:23.457Z,99.90
2019-05-29T03:31:56.120Z,99.90
2019-05-29T03:34:34.927Z,99.90
2019-05-29T03:37:04.509Z,99.90
2019-05-29T03:39:38.566Z,99.90
2019-05-29T03:42:11.368Z,99.90
2019-05-29T03:44:44.201Z,99.90
2019-05-29T03:47:17.003Z,99.90
2019-05-29T03:49:49.783Z,99.90
2019-05-29T03:52:23.695Z,99.90
2019-05-29T03:54:56.339Z,99.90
2019-05-29T03:57:29.741Z,99.90
2019-05-29T04:00:04.835Z,99.90
2019-05-29T04:02:38.387Z,99.90
2019-05-29T04:05:11.507Z,99.90
2019-05-29T04:07:44.263Z,99.90
2019-05-29T04:10:27.182Z,99.90
2019-05-29T04:13:00.910Z,99.90
2019-05-29T04:15:36.181Z,99.90
2019-05-29T04:18:09.321Z,99.90
2019-05-29T04:20:44.920Z,99.90
2019-05-29T04:23:19.451Z,99.90
2019-05-29T04:25:57.277Z,99.90
2019-05-29T04:28:32.346Z,99.90
2019-05-29T04:31:06.683Z,99.90
2019-05-29T04:33:39.491Z,99.90
2019-05-29T04:36:13.315Z,99.90
2019-05-29T04:38:46.186Z,99.90
2019-05-29T04:41:18.937Z,99.90
2019-05-29T04:43:51.785Z,99.90
2019-05-29T04:46:27.245Z,99.90
2019-05-29T04:48:59.902Z,99.90
2019-05-29T04:51:33.103Z,99.90
2019-05-29T04:54:05.928Z,99.90
2019-05-29T04:56:40.482Z,99.90
2019-05-29T04:59:14.455Z,99.90
2019-05-29T05:01:47.263Z,99.90
2019-05-29T05:04:21.148Z,99.90
2019-05-29T05:06:53.905Z,99.90
2019-05-29T05:09:26.632Z,99.90
2019-05-29T05:11:59.461Z,99.90
2019-05-29T05:14:32.175Z,99.90
2019-05-29T05:17:04.914Z,99.90
2019-05-29T05:19:38.117Z,99.90
2019-05-29T05:22:11.036Z,99.90
2019-05-29T05:24:45.023Z,99.90
2019-05-29T05:27:17.881Z,99.90
2019-05-29T05:29:50.517Z,99.90
2019-05-29T05:32:23.306Z,99.90
2019-05-29T05:34:56.230Z,99.90
2019-05-29T05:37:29.185Z,99.90
2019-05-29T05:40:03.307Z,99.90
2019-05-29T05:42:37.170Z,99.90
2019-05-29T05:45:10.337Z,99.90
2019-05-29T05:47:53.600Z,99.90
2019-05-29T05:50:18.532Z,99.90
2019-05-29T05:52:51.286Z,99.90
2019-05-29T05:55:25.043Z,99.90
2019-05-29T05:57:57.726Z,99.90
2019-05-29T06:00:33.796Z,99.90
2019-05-29T06:03:07.866Z,99.90
2019-05-29T06:05:40.505Z,99.90
2019-05-29T06:08:13.432Z,99.90
2019-05-29T06:10:47.144Z,99.90
2019-05-29T06:13:19.851Z,99.90
2019-05-29T06:15:52.528Z,99.90
2019-05-29T06:18:26.418Z,99.90
2019-05-29T06:20:59.222Z,99.90
2019-05-29T06:23:32.803Z,99.90
2019-05-29T06:26:05.624Z,99.90
2019-05-29T06:28:39.151Z,99.90
2019-05-29T06:31:11.936Z,99.90
2019-05-29T06:33:44.557Z,99.90
2019-05-29T06:36:17.491Z,99.90
2019-05-29T06:38:50.522Z,99.90
2019-05-29T06:41:23.247Z,99.90
2019-05-29T06:43:57.959Z,99.90
2019-05-29T06:46:32.098Z,99.90
2019-05-29T06:49:06.268Z,99.90
2019-05-29T06:51:39.407Z,99.90
2019-05-29T06:54:12.403Z,99.90
2019-05-29T06:56:45.337Z,99.90
2019-05-29T06:59:18.417Z,99.90
2019-05-29T07:01:51.385Z,99.90
2019-05-29T07:04:25.643Z,99.90
2019-05-29T07:06:58.438Z,99.90
2019-05-29T07:09:31.357Z,99.90
2019-05-29T07:12:05.008Z,99.90
2019-05-29T07:14:38.191Z,99.90
2019-05-29T07:17:11.994Z,99.90
2019-05-29T07:19:57.794Z,99.90
2019-05-29T07:22:20.478Z,99.90
2019-05-29T07:24:53.368Z,99.90
2019-05-29T07:27:27.211Z,99.90
2019-05-29T07:29:59.978Z,99.90
2019-05-29T07:32:32.677Z,99.90
2019-05-29T07:35:05.567Z,99.90
2019-05-29T07:37:39.557Z,99.90
2019-05-29T07:40:13.194Z,99.90
2019-05-29T07:42:53.692Z,99.90
2019-05-29T07:45:20.694Z,99.90
2019-05-29T07:47:53.508Z,99.90
2019-05-29T07:50:26.519Z,99.90
2019-05-29T07:52:59.342Z,99.90
2019-05-29T07:55:32.368Z,99.90
2019-05-29T07:58:05.089Z,99.90
2019-05-29T08:00:59.858Z,99.90
2019-05-29T08:03:12.562Z,99.90
2019-05-29T08:05:50.618Z,99.90
2019-05-29T08:08:19.870Z,99.90
2019-05-29T08:10:52.603Z,99.90
2019-05-29T08:13:25.235Z,99.90
2019-05-29T08:16:02.864Z,99.90
2019-05-29T08:18:32.389Z,99.90
2019-05-29T08:21:06.224Z,99.90
2019-05-29T08:23:40.180Z,99.90
2019-05-29T08:26:13.028Z,99.90
2019-05-29T08:28:46.718Z,99.90
2019-05-29T08:31:19.422Z,99.90
2019-05-29T08:33:51.938Z,97.40
2019-05-29T08:36:24.562Z,97.20
2019-05-29T08:38:57.233Z,98.40
2019-05-29T08:41:29.810Z,95.80
2019-05-29T08:44:02.230Z,95.00
2019-05-29T08:46:34.836Z,97.10
2019-05-29T08:49:07.572Z,96.10
2019-05-29T08:51:40.291Z,96.10
2019-05-29T08:54:23.403Z,97.90
2019-05-29T08:56:48.389Z,95.20
2019-05-29T08:59:21.265Z,94.50
2019-05-29T09:01:55.589Z,93.70
2019-05-29T09:04:28.561Z,93.10
2019-05-29T09:07:01.280Z,86.90
2019-05-29T09:09:34.178Z,86.20
2019-05-29T09:12:06.916Z,88.40
2019-05-29T09:14:39.808Z,84.10
2019-05-29T09:17:14.578Z,83.80
2019-05-29T09:19:47.371Z,90.10
2019-05-29T09:22:20.984Z,87.80
2019-05-29T09:24:53.793Z,83.70
2019-05-29T09:27:26.440Z,65.70
2019-05-29T09:29:59.195Z,65.40
2019-05-29T09:32:48.825Z,61.50
2019-05-29T09:35:07.096Z,59.20
2019-05-29T09:37:39.772Z,63.30
2019-05-29T09:40:16.963Z,62.60
2019-05-29T09:42:49.790Z,62.00
2019-05-29T09:45:23.462Z,58.80
2019-05-29T09:47:56.413Z,61.40
2019-05-29T09:50:46.457Z,61.40
2019-05-29T09:53:04.155Z,59.80
2019-05-29T09:55:37.055Z,58.20
2019-05-29T09:58:09.795Z,61.70
2019-05-29T10:00:42.394Z,70.30
2019-05-29T10:03:15.005Z,66.30
2019-05-29T10:05:47.674Z,62.80
2019-05-29T10:08:20.464Z,60.70
2019-05-29T10:11:01.472Z,57.40
2019-05-29T10:13:27.739Z,51.70
2019-05-29T10:16:00.872Z,54.20
2019-05-29T10:18:33.862Z,53.30
2019-05-29T10:21:06.581Z,58.10
2019-05-29T10:23:39.340Z,55.20
2019-05-29T10:26:12.087Z,52.10
2019-05-29T10:29:01.641Z,55.70
2019-05-29T10:31:19.441Z,52.00
2019-05-29T10:33:52.432Z,55.50
2019-05-29T10:36:25.232Z,51.90
2019-05-29T10:38:58.088Z,49.80
2019-05-29T10:41:30.959Z,47.90
2019-05-29T10:44:04.208Z,49.80
2019-05-29T10:46:36.958Z,46.80
2019-05-29T10:49:09.705Z,49.50
2019-05-29T10:51:59.039Z,46.40
2019-05-29T10:54:18.131Z,48.00
2019-05-29T10:56:50.952Z,44.90
2019-05-29T10:59:23.635Z,47.50
2019-05-29T11:01:56.373Z,47.20
2019-05-29T11:04:29.011Z,45.80
2019-05-29T11:07:01.841Z,48.10
2019-05-29T11:09:44.040Z,44.10
2019-05-29T11:12:09.506Z,44.60
2019-05-29T11:14:42.243Z,46.50
2019-05-29T11:17:14.991Z,44.10
2019-05-29T11:19:47.638Z,42.40
2019-05-29T11:22:26.243Z,41.90
2019-05-29T11:25:18.862Z,41.00
2019-05-29T11:27:33.383Z,37.50
2019-05-29T11:30:06.638Z,36.00
2019-05-29T11:32:41.525Z,36.70
2019-05-29T11:35:17.953Z,36.80
2019-05-29T11:37:50.767Z,37.70
2019-05-29T11:40:23.442Z,38.80
2019-05-29T11:42:56.952Z,37.40
2019-05-29T11:45:30.087Z,36.40
2019-05-29T11:48:05.025Z,36.40
2019-05-29T11:50:37.900Z,34.50
2019-05-29T11:53:10.582Z,33.80
2019-05-29T11:55:43.270Z,38.20
2019-05-29T11:58:30.709Z,33.50
2019-05-29T12:00:52.905Z,35.80
2019-05-29T12:03:25.877Z,34.80
2019-05-29T12:05:59.407Z,33.70
2019-05-29T12:08:33.294Z,33.30
2019-05-29T12:11:07.159Z,39.00
2019-05-29T12:13:40.656Z,36.00
2019-05-29T12:16:15.382Z,34.70
2019-05-29T12:18:48.129Z,36.60
2019-05-29T12:21:20.935Z,34.30
2019-05-29T12:23:54.009Z,32.60
2019-05-29T12:26:26.821Z,33.90
2019-05-29T12:29:08.395Z,34.70
2019-05-29T12:31:35.117Z,34.20
2019-05-29T12:34:18.662Z,35.00
2019-05-29T12:36:43.524Z,37.00
2019-05-29T12:39:17.202Z,37.30
2019-05-29T12:41:49.892Z,36.70
2019-05-29T12:44:22.529Z,37.00
2019-05-29T12:46:55.559Z,37.10
2019-05-29T12:49:28.502Z,38.10
2019-05-29T12:52:02.465Z,38.90
2019-05-29T12:54:36.391Z,37.90
2019-05-29T12:57:09.106Z,37.70
2019-05-29T12:59:44.883Z,39.20
2019-05-29T13:02:17.645Z,38.80
2019-05-29T13:05:07.039Z,42.50
2019-05-29T13:07:25.014Z,41.30
2019-05-29T13:09:58.915Z,40.00
2019-05-29T13:12:31.783Z,38.80
2019-05-29T13:15:05.721Z,39.50
2019-05-29T13:17:38.530Z,38.20
2019-05-29T13:20:20.930Z,34.50
2019-05-29T13:22:46.333Z,34.80
2019-05-29T13:25:19.092Z,35.30
2019-05-29T13:27:51.775Z,35.80
2019-05-29T13:30:24.806Z,36.40
2019-05-29T13:33:02.173Z,36.50
2019-05-29T13:35:32.292Z,36.00
2019-05-29T13:38:05.281Z,35.90
2019-05-29T13:40:38.042Z,36.10
2019-05-29T13:43:15.095Z,34.70
2019-05-29T13:45:45.351Z,35.60
2019-05-29T13:48:18.006Z,36.80
2019-05-29T13:50:50.788Z,37.80
2019-05-29T13:53:24.441Z,34.70
2019-05-29T13:55:57.743Z,35.40
2019-05-29T13:58:30.665Z,34.20
2019-05-29T14:01:04.388Z,33.30
2019-05-29T14:03:38.563Z,33.90
2019-05-29T14:06:11.427Z,33.00
2019-05-29T14:08:44.369Z,32.40
2019-05-29T14:11:17.422Z,32.10
2019-05-29T14:13:51.914Z,32.30
2019-05-29T14:16:24.844Z,32.60
2019-05-29T14:18:57.650Z,31.90
2019-05-29T14:21:30.366Z,32.30
2019-05-29T14:24:20.668Z,32.40
2019-05-29T14:26:38.329Z,32.20
2019-05-29T14:29:11.856Z,33.20
2019-05-29T14:31:44.692Z,31.40
2019-05-29T14:34:20.282Z,30.20
2019-05-29T14:36:53.146Z,29.20
2019-05-29T14:39:26.953Z,29.10
2019-05-29T14:41:59.695Z,28.80
2019-05-29T14:44:32.484Z,28.90
2019-05-29T14:47:05.936Z,28.70
2019-05-29T14:49:38.912Z,29.10
2019-05-29T14:52:12.085Z,28.80
2019-05-29T14:54:46.146Z,28.60
2019-05-29T14:57:25.858Z,27.70
2019-05-29T14:59:55.297Z,28.40
2019-05-29T15:02:28.207Z,27.80
2019-05-29T15:05:00.865Z,28.60
2019-05-29T15:07:33.838Z,28.70
2019-05-29T15:10:19.743Z,29.20
2019-05-29T15:12:42.380Z,29.70
2019-05-29T15:15:18.450Z,29.50
2019-05-29T15:17:51.114Z,28.60
2019-05-29T15:20:26.895Z,28.70
2019-05-29T15:22:59.736Z,29.10
2019-05-29T15:25:34.466Z,28.40
2019-05-29T15:28:08.191Z,28.00
2019-05-29T15:30:43.079Z,27.70
2019-05-29T15:33:17.615Z,28.10
2019-05-29T15:35:50.339Z,27.80
2019-05-29T15:38:23.220Z,28.70
2019-05-29T15:40:55.929Z,29.60
2019-05-29T15:43:28.626Z,29.20
2019-05-29T15:46:01.281Z,30.00
2019-05-29T15:48:36.131Z,31.60
2019-05-29T15:51:10.972Z,33.50
2019-05-29T15:53:44.986Z,33.70
2019-05-29T15:56:27.108Z,32.00
2019-05-29T15:58:53.714Z,31.40
2019-05-29T16:01:26.564Z,33.70
2019-05-29T16:03:59.345Z,35.10
2019-05-29T16:06:31.924Z,37.00
2019-05-29T16:09:08.074Z,36.90
2019-05-29T16:11:40.845Z,34.80
2019-05-29T16:14:14.845Z,32.70
2019-05-29T16:16:47.855Z,32.70
2019-05-29T16:19:22.569Z,30.50
2019-05-29T16:21:55.359Z,30.40
2019-05-29T16:24:28.190Z,30.80
2019-05-29T16:27:08.660Z,32.20
2019-05-29T16:29:36.590Z,32.30
2019-05-29T16:32:09.434Z,32.80
2019-05-29T16:34:42.306Z,34.20
2019-05-29T16:37:17.426Z,34.10
2019-05-29T16:39:50.277Z,32.20
2019-05-29T16:42:24.311Z,32.00
2019-05-29T16:44:57.035Z,34.20
2019-05-29T16:47:29.671Z,35.60
2019-05-29T16:50:02.920Z,34.60
2019-05-29T16:52:35.910Z,36.40
2019-05-29T16:55:09.199Z,36.20
2019-05-29T16:57:43.919Z,35.10
2019-05-29T17:00:19.573Z,34.60
2019-05-29T17:02:52.506Z,34.60
2019-05-29T17:05:27.231Z,34.10
2019-05-29T17:08:00.018Z,33.70
2019-05-29T17:10:36.489Z,32.50
2019-05-29T17:13:09.312Z,32.30
2019-05-29T17:15:42.045Z,33.50
2019-05-29T17:18:14.816Z,34.40
2019-05-29T17:20:47.894Z,34.10
2019-05-29T17:23:21.093Z,33.40
2019-05-29T17:26:09.250Z,34.30
2019-05-29T17:28:28.663Z,34.50
2019-05-29T17:31:02.715Z,33.70
2019-05-29T17:33:35.663Z,33.20
2019-05-29T17:36:08.613Z,33.60
2019-05-29T17:38:41.675Z,33.00
2019-05-29T17:41:15.224Z,33.40
2019-05-29T17:43:48.176Z,34.00
2019-05-29T17:46:21.779Z,34.60
2019-05-29T17:48:56.368Z,34.50
2019-05-29T17:51:29.171Z,34.10
2019-05-29T17:54:01.833Z,34.50
2019-05-29T17:56:36.941Z,34.20
2019-05-29T17:59:10.832Z,34.70
2019-05-29T18:01:45.252Z,35.20
2019-05-29T18:04:18.161Z,37.00
2019-05-29T18:06:50.944Z,36.00
2019-05-29T18:09:27.101Z,37.00
2019-05-29T18:11:58.593Z,36.90
2019-05-29T18:14:32.659Z,37.50
2019-05-29T18:17:07.086Z,37.90
2019-05-29T18:19:39.978Z,38.90
2019-05-29T18:22:12.691Z,39.90
2019-05-29T18:24:45.500Z,40.80
2019-05-29T18:27:18.405Z,40.00
2019-05-29T18:30:03.961Z,41.00
2019-05-29T18:32:39.168Z,41.50
2019-05-29T18:35:12.145Z,42.50
2019-05-29T18:37:44.815Z,43.00
2019-05-29T18:40:17.857Z,43.90
2019-05-29T18:42:50.759Z,44.40
2019-05-29T18:45:25.071Z,45.20
2019-05-29T18:47:58.124Z,47.40
2019-05-29T18:50:32.825Z,48.30
2019-05-29T18:53:05.964Z,48.90
2019-05-29T18:55:38.757Z,50.20
2019-05-29T18:58:11.626Z,51.20
2019-05-29T19:00:47.179Z,51.70
2019-05-29T19:03:21.290Z,52.60
2019-05-29T19:05:54.133Z,53.90
2019-05-29T19:08:27.783Z,55.50
2019-05-29T19:11:01.686Z,57.20
2019-05-29T19:13:34.575Z,58.50
2019-05-29T19:16:09.106Z,61.00
2019-05-29T19:18:41.981Z,63.00
2019-05-29T19:21:16.598Z,67.20
2019-05-29T19:23:49.499Z,70.10
2019-05-29T19:26:24.757Z,76.80
2019-05-29T19:28:59.488Z,84.40
2019-05-29T19:31:33.344Z,91.00
2019-05-29T19:34:06.492Z,92.80
2019-05-29T19:36:39.277Z,92.80
2019-05-29T19:39:12.207Z,93.20
2019-05-29T19:41:44.889Z,93.60
2019-05-29T19:44:17.901Z,96.10
2019-05-29T19:46:53.950Z,99.90
2019-05-29T19:49:27.288Z,99.90
2019-05-29T19:52:00.047Z,99.90
2019-05-29T19:54:35.749Z,99.90
2019-05-29T19:57:08.673Z,99.90
2019-05-29T19:59:41.603Z,99.90
2019-05-29T20:02:14.657Z,99.90
2019-05-29T20:04:47.505Z,99.90
2019-05-29T20:07:20.174Z,99.90
2019-05-29T20:09:54.340Z,99.90
2019-05-29T20:12:29.273Z,99.90
2019-05-29T20:15:03.805Z,99.90
2019-05-29T20:17:38.331Z,99.90
2019-05-29T20:20:11.402Z,98.70
2019-05-29T20:22:44.260Z,99.90
2019-05-29T20:25:17.109Z,99.90
2019-05-29T20:28:03.385Z,99.90
2019-05-29T20:30:25.553Z,99.90
2019-05-29T20:32:58.441Z,99.90
2019-05-29T20:35:32.762Z,99.90
2019-05-29T20:38:06.625Z,99.90
2019-05-29T20:40:41.389Z,99.90
2019-05-29T20:43:14.097Z,99.90
2019-05-29T20:45:47.840Z,99.90
2019-05-29T20:48:20.591Z,99.90
2019-05-29T20:50:53.507Z,99.90
2019-05-29T20:53:29.118Z,99.90
2019-05-29T20:56:03.170Z,99.90
2019-05-29T20:58:35.987Z,99.90
2019-05-29T21:01:08.674Z,99.90
2019-05-29T21:03:42.496Z,99.90
2019-05-29T21:06:15.270Z,99.90
2019-05-29T21:08:48.014Z,99.90
2019-05-29T21:11:20.681Z,99.90
2019-05-29T21:13:53.300Z,99.90
2019-05-29T21:16:25.983Z,99.90
2019-05-29T21:18:58.914Z,99.90
2019-05-29T21:21:31.501Z,99.90
2019-05-29T21:24:04.253Z,99.90
2019-05-29T21:26:37.073Z,99.90
2019-05-29T21:29:09.979Z,99.90
2019-05-29T21:31:43.711Z,99.90
2019-05-29T21:34:17.766Z,99.90
2019-05-29T21:36:50.688Z,99.90
2019-05-29T21:39:23.369Z,99.90
2019-05-29T21:41:57.799Z,99.90
2019-05-29T21:44:30.473Z,99.90
2019-05-29T21:47:03.052Z,99.90
2019-05-29T21:49:37.154Z,99.90
2019-05-29T21:52:10.043Z,99.90
2019-05-29T21:54:43.627Z,99.90
2019-05-29T21:57:17.542Z,99.90
2019-05-29T21:59:50.279Z,99.90
2019-05-29T22:02:22.878Z,99.90
2019-05-29T22:04:55.779Z,99.90
2019-05-29T22:07:30.304Z,99.90
2019-05-29T22:10:04.126Z,99.90
2019-05-29T22:12:36.998Z,99.90
2019-05-29T22:15:11.775Z,99.90
2019-05-29T22:17:44.670Z,99.90
2019-05-29T22:20:17.783Z,99.90
2019-05-29T22:22:52.848Z,99.90
2019-05-29T22:25:25.756Z,99.90
2019-05-29T22:27:59.541Z,99.90
2019-05-29T22:30:32.631Z,99.90
2019-05-29T22:33:05.767Z,99.90
2019-05-29T22:35:38.683Z,99.90
2019-05-29T22:38:11.657Z,99.90
2019-05-29T22:40:44.479Z,99.90
2019-05-29T22:43:17.177Z,99.90
2019-05-29T22:45:49.800Z,99.90
2019-05-29T22:48:22.371Z,99.90
2019-05-29T22:50:55.739Z,99.90
2019-05-29T22:53:28.570Z,99.90
2019-05-29T22:56:02.044Z,99.90
2019-05-29T22:58:34.730Z,99.90
2019-05-29T23:01:07.529Z,99.90
2019-05-29T23:03:42.134Z,99.90
2019-05-29T23:06:15.077Z,99.90
2019-05-29T23:08:47.911Z,99.90
2019-05-29T23:11:21.739Z,99.90
2019-05-29T23:13:54.481Z,99.90
2019-05-29T23:16:29.066Z,99.90
2019-05-29T23:19:02.802Z,99.90
2019-05-29T23:21:37.423Z,99.90
2019-05-29T23:24:11.165Z,99.90
2019-05-29T23:26:43.876Z,99.90
2019-05-29T23:29:16.497Z,99.90
2019-05-29T23:31:50.372Z,99.90
2019-05-29T23:34:23.094Z,99.90
2019-05-29T23:36:57.048Z,99.90
2019-05-29T23:39:29.945Z,99.90
2019-05-29T23:42:03.642Z,99.90
2019-05-29T23:44:39.464Z,99.90
2019-05-29T23:47:12.208Z,99.90
2019-05-29T23:49:45.010Z,99.90
2019-05-29T23:52:17.780Z,99.90
2019-05-29T23:54:50.632Z,99.90
2019-05-29T23:57:23.405Z,99.90
